createdAt,value
2022-11-29T00:00:34.819Z,0.38
2022-11-29T00:01:38.313Z,0.38
2022-11-29T00:02:40.406Z,0.41
2022-11-29T00:03:42.868Z,0.37
2022-11-29T00:04:45.099Z,0.37
2022-11-29T00:05:47.435Z,0.31
2022-11-29T00:06:49.416Z,0.41
2022-11-29T00:07:51.322Z,0.38
2022-11-29T00:09:01.376Z,0.40
2022-11-29T00:10:04.012Z,0.39
2022-11-29T00:11:08.076Z,0.42
2022-11-29T00:12:10.920Z,0.36
2022-11-29T00:13:12.833Z,0.39
2022-11-29T00:14:17.783Z,0.43
2022-11-29T00:15:19.729Z,0.36
2022-11-29T00:16:21.783Z,0.42
2022-11-29T00:17:23.780Z,0.42
2022-11-29T00:18:25.638Z,0.46
2022-11-29T00:19:27.736Z,0.48
2022-11-29T00:20:30.443Z,0.43
2022-11-29T00:21:32.553Z,0.48
2022-11-29T00:22:34.450Z,0.44
2022-11-29T00:23:36.336Z,0.49
2022-11-29T00:24:38.185Z,0.47
2022-11-29T00:25:40.053Z,0.49
2022-11-29T00:26:42.003Z,0.53
2022-11-29T00:27:43.996Z,0.53
2022-11-29T00:28:46.206Z,0.49
2022-11-29T00:29:48.071Z,0.51
2022-11-29T00:30:50.070Z,0.49
2022-11-29T00:31:52.356Z,0.51
2022-11-29T00:32:54.368Z,0.50
2022-11-29T00:33:57.817Z,0.47
2022-11-29T00:35:02.017Z,0.53
2022-11-29T00:36:04.119Z,0.55
2022-11-29T00:37:06.056Z,0.51
2022-11-29T00:38:08.044Z,0.51
2022-11-29T00:39:12.219Z,0.47
2022-11-29T00:40:14.845Z,0.46
2022-11-29T00:41:17.152Z,0.46
2022-11-29T00:42:19.097Z,0.51
2022-11-29T00:43:20.981Z,0.48
2022-11-29T00:44:23.108Z,0.47
2022-11-29T00:45:25.009Z,0.47
2022-11-29T00:46:27.031Z,0.49
2022-11-29T00:47:29.034Z,0.46
2022-11-29T00:48:31.680Z,0.51
2022-11-29T00:49:33.539Z,0.50
2022-11-29T00:50:35.492Z,0.47
2022-11-29T00:51:37.962Z,0.43
2022-11-29T00:52:39.821Z,0.47
2022-11-29T00:53:41.802Z,0.49
2022-11-29T00:54:43.841Z,0.45
2022-11-29T00:55:53.012Z,0.48
2022-11-29T00:56:55.525Z,0.46
2022-11-29T00:57:57.394Z,0.46
2022-11-29T00:58:59.365Z,0.49
2022-11-29T01:00:01.252Z,0.55
2022-11-29T01:01:04.715Z,0.44
2022-11-29T01:02:06.777Z,0.47
2022-11-29T01:03:09.237Z,0.43
2022-11-29T01:04:11.085Z,0.45
2022-11-29T01:05:12.954Z,0.47
2022-11-29T01:06:17.378Z,0.49
2022-11-29T01:07:19.504Z,0.47
2022-11-29T01:08:21.635Z,0.48
2022-11-29T01:09:23.784Z,0.44
2022-11-29T01:10:25.884Z,0.45
2022-11-29T01:11:27.995Z,0.44
2022-11-29T01:12:29.867Z,0.47
2022-11-29T01:13:32.329Z,0.49
2022-11-29T01:14:34.218Z,0.46
2022-11-29T01:15:37.333Z,0.45
2022-11-29T01:16:39.344Z,0.44
2022-11-29T01:17:41.681Z,0.41
2022-11-29T01:18:44.063Z,0.43
2022-11-29T01:19:50.628Z,0.45
2022-11-29T01:21:04.439Z,0.44
2022-11-29T01:22:06.351Z,0.44
2022-11-29T01:23:08.216Z,0.44
2022-11-29T01:24:10.204Z,0.48
2022-11-29T01:25:13.278Z,0.51
2022-11-29T01:26:18.272Z,0.45
2022-11-29T01:27:20.176Z,0.49
2022-11-29T01:28:22.915Z,0.54
2022-11-29T01:29:24.828Z,0.53
2022-11-29T01:30:27.272Z,0.51
2022-11-29T01:31:33.125Z,0.52
2022-11-29T01:32:37.113Z,0.48
2022-11-29T01:33:39.983Z,0.51
2022-11-29T01:34:42.215Z,0.47
2022-11-29T01:35:53.276Z,0.50
2022-11-29T01:36:56.471Z,0.58
2022-11-29T01:37:58.459Z,0.52
2022-11-29T01:39:02.996Z,0.53
2022-11-29T01:40:06.425Z,0.43
2022-11-29T01:42:26.269Z,0.58
2022-11-29T01:43:28.754Z,0.43
2022-11-29T01:44:34.427Z,0.53
2022-11-29T01:45:37.885Z,0.49
2022-11-29T01:46:43.618Z,0.51
2022-11-29T01:47:47.111Z,0.52
2022-11-29T01:48:51.699Z,0.54
2022-11-29T01:49:53.885Z,0.52
2022-11-29T01:51:00.045Z,0.55
2022-11-29T01:52:10.697Z,0.49
2022-11-29T01:53:14.166Z,0.44
2022-11-29T01:54:16.992Z,0.41
2022-11-29T01:55:20.138Z,0.36
2022-11-29T01:56:24.684Z,0.42
2022-11-29T01:57:27.508Z,0.37
2022-11-29T01:58:30.389Z,0.43
2022-11-29T01:59:33.169Z,0.45
2022-11-29T02:00:35.678Z,0.42
2022-11-29T02:01:38.012Z,0.46
2022-11-29T02:03:04.796Z,0.46
2022-11-29T02:04:08.014Z,0.43
2022-11-29T02:05:13.573Z,0.39
2022-11-29T02:06:16.962Z,0.46
2022-11-29T02:07:18.864Z,0.45
2022-11-29T02:08:27.773Z,0.41
2022-11-29T02:09:29.979Z,0.39
2022-11-29T02:11:06.110Z,0.43
2022-11-29T02:12:14.492Z,0.45
2022-11-29T02:13:20.170Z,0.38
2022-11-29T02:14:44.211Z,0.33
2022-11-29T02:17:13.288Z,0.53
2022-11-29T02:18:19.259Z,0.31
2022-11-29T02:19:50.924Z,0.29
2022-11-29T02:22:08.421Z,0.35
2022-11-29T02:23:29.448Z,0.23
2022-11-29T02:24:55.176Z,0.28
2022-11-29T02:26:15.478Z,0.31
2022-11-29T02:27:26.962Z,0.30
2022-11-29T02:28:36.520Z,0.31
2022-11-29T02:30:09.073Z,0.28
2022-11-29T02:31:49.893Z,0.26
2022-11-29T02:33:07.839Z,0.23
2022-11-29T02:34:16.406Z,0.25
2022-11-29T02:35:34.441Z,0.34
2022-11-29T02:37:06.018Z,0.31
2022-11-29T02:38:22.484Z,0.29
2022-11-29T02:39:30.928Z,0.28
2022-11-29T02:40:39.493Z,0.25
2022-11-29T02:41:57.372Z,0.27
2022-11-29T02:43:19.609Z,0.30
2022-11-29T02:44:51.400Z,0.25
2022-11-29T02:46:13.337Z,0.23
2022-11-29T02:47:37.014Z,0.21
2022-11-29T02:48:54.573Z,0.22
2022-11-29T02:50:21.268Z,0.28
2022-11-29T02:51:36.593Z,0.25
2022-11-29T02:52:54.095Z,0.23
2022-11-29T02:54:15.244Z,0.22
2022-11-29T02:55:23.975Z,0.23
2022-11-29T02:56:36.629Z,0.21
2022-11-29T02:57:42.298Z,0.21
2022-11-29T02:59:20.224Z,0.25
2022-11-29T03:00:23.140Z,0.25
2022-11-29T03:01:50.248Z,0.25
2022-11-29T03:02:58.820Z,0.23
2022-11-29T03:04:19.226Z,0.22
2022-11-29T03:05:31.144Z,0.24
2022-11-29T03:06:39.935Z,0.21
2022-11-29T03:07:54.656Z,0.26
2022-11-29T03:10:19.608Z,0.33
2022-11-29T03:11:34.587Z,0.23
2022-11-29T03:12:45.695Z,0.18
2022-11-29T03:13:57.192Z,0.22
2022-11-29T03:15:01.771Z,0.22
2022-11-29T03:16:10.785Z,0.21
2022-11-29T03:17:19.290Z,0.16
2022-11-29T03:18:45.834Z,0.09
2022-11-29T03:20:28.167Z,0.16
2022-11-29T03:21:36.913Z,0.16
2022-11-29T03:23:14.526Z,0.20
2022-11-29T03:24:26.277Z,0.14
2022-11-29T03:25:34.683Z,0.20
2022-11-29T03:27:54.766Z,0.28
2022-11-29T03:29:03.181Z,0.12
2022-11-29T03:30:09.192Z,0.17
2022-11-29T03:31:14.956Z,0.20
2022-11-29T03:32:32.614Z,0.15
2022-11-29T03:33:47.509Z,0.17
2022-11-29T03:35:08.490Z,0.16
2022-11-29T03:36:17.526Z,0.15
2022-11-29T03:37:24.361Z,0.10
2022-11-29T03:38:41.943Z,0.05
2022-11-29T03:39:53.592Z,0.05
2022-11-29T03:41:27.042Z,0.09
2022-11-29T03:42:32.698Z,0.05
2022-11-29T03:43:50.732Z,0.02
2022-11-29T03:44:56.437Z,-0.01
2022-11-29T03:46:05.355Z,0.03
2022-11-29T03:47:11.145Z,-0.02
2022-11-29T03:48:29.829Z,0.04
2022-11-29T03:49:35.569Z,0.04
2022-11-29T03:50:41.329Z,0.04
2022-11-29T03:52:05.518Z,0.05
2022-11-29T03:53:14.266Z,0.09
2022-11-29T03:54:29.249Z,-0.01
2022-11-29T03:55:52.091Z,0.03
2022-11-29T03:56:55.018Z,0.02
2022-11-29T03:58:22.065Z,0.07
2022-11-29T03:59:37.527Z,0.03
2022-11-29T04:00:48.900Z,0.00
2022-11-29T04:02:11.302Z,-0.03
2022-11-29T04:03:47.597Z,0.02
2022-11-29T04:05:17.265Z,0.06
2022-11-29T04:06:32.107Z,0.03
2022-11-29T04:07:54.759Z,0.01
2022-11-29T04:09:20.153Z,0.05
2022-11-29T04:10:56.636Z,0.03
2022-11-29T04:12:22.433Z,0.01
2022-11-29T04:13:28.139Z,-0.03
2022-11-29T04:14:34.614Z,-0.02
2022-11-29T04:15:49.357Z,-0.03
2022-11-29T04:17:08.129Z,0.02
2022-11-29T04:18:19.969Z,-0.03
2022-11-29T04:20:00.692Z,-0.01
2022-11-29T04:21:18.640Z,-0.01
2022-11-29T04:22:27.346Z,-0.06
2022-11-29T04:23:41.369Z,-0.03
2022-11-29T04:25:20.822Z,-0.04
2022-11-29T04:26:39.509Z,-0.08
2022-11-29T04:27:57.950Z,-0.07
2022-11-29T04:29:12.570Z,-0.10
2022-11-29T04:30:24.124Z,-0.10
2022-11-29T04:31:34.104Z,-0.10
2022-11-29T04:32:43.199Z,-0.12
2022-11-29T04:34:07.323Z,-0.10
2022-11-29T04:35:16.068Z,-0.07
2022-11-29T04:36:30.786Z,-0.07
2022-11-29T04:37:56.291Z,-0.02
2022-11-29T04:39:02.076Z,-0.05
2022-11-29T04:40:27.502Z,-0.05
2022-11-29T04:41:42.292Z,-0.11
2022-11-29T04:43:08.923Z,-0.18
2022-11-29T04:44:29.597Z,-0.06
2022-11-29T04:45:58.224Z,-0.11
2022-11-29T04:47:19.281Z,-0.11
2022-11-29T04:48:34.301Z,-0.09
2022-11-29T04:51:08.901Z,0.01
2022-11-29T04:52:41.602Z,-0.06
2022-11-29T04:53:59.498Z,-0.15
2022-11-29T04:55:26.139Z,-0.20
2022-11-29T04:56:31.790Z,-0.18
2022-11-29T04:57:48.927Z,-0.15
2022-11-29T04:59:27.659Z,-0.15
2022-11-29T05:00:33.498Z,-0.13
2022-11-29T05:01:44.577Z,-0.13
2022-11-29T05:02:52.938Z,-0.11
2022-11-29T05:04:13.147Z,-0.12
2022-11-29T05:05:33.244Z,-0.11
2022-11-29T05:06:56.946Z,-0.24
2022-11-29T05:09:22.802Z,-0.05
2022-11-29T05:10:37.794Z,-0.22
2022-11-29T05:12:05.353Z,-0.22
2022-11-29T05:13:27.658Z,-0.21
2022-11-29T05:15:05.614Z,-0.22
2022-11-29T05:16:23.864Z,-0.20
2022-11-29T05:17:35.534Z,-0.15
2022-11-29T05:18:54.592Z,-0.15
2022-11-29T05:20:30.540Z,-0.13
2022-11-29T05:21:49.551Z,-0.25
2022-11-29T05:23:13.777Z,-0.24
2022-11-29T05:24:40.470Z,-0.21
2022-11-29T05:26:03.053Z,-0.15
2022-11-29T05:27:17.764Z,-0.20
2022-11-29T05:28:38.946Z,-0.21
2022-11-29T05:29:44.827Z,-0.20
2022-11-29T05:31:21.470Z,-0.23
2022-11-29T05:32:33.063Z,-0.15
2022-11-29T05:33:45.704Z,-0.13
2022-11-29T05:34:54.292Z,-0.15
2022-11-29T05:36:03.011Z,-0.12
2022-11-29T05:37:25.147Z,-0.14
2022-11-29T05:38:50.928Z,-0.20
2022-11-29T05:40:14.596Z,-0.16
2022-11-29T05:41:32.076Z,-0.15
2022-11-29T05:42:50.048Z,-0.20
2022-11-29T05:44:14.075Z,-0.21
2022-11-29T05:46:47.836Z,-0.11
2022-11-29T05:47:57.603Z,-0.22
2022-11-29T05:49:29.271Z,-0.30
2022-11-29T05:50:43.961Z,-0.23
2022-11-29T05:52:22.991Z,-0.24
2022-11-29T05:53:40.455Z,-0.24
2022-11-29T05:55:04.292Z,-0.24
2022-11-29T05:56:10.281Z,-0.23
2022-11-29T05:57:43.092Z,-0.23
2022-11-29T05:59:01.367Z,-0.19
2022-11-29T06:00:06.010Z,-0.27
2022-11-29T06:01:20.918Z,-0.22
2022-11-29T06:02:29.751Z,-0.24
2022-11-29T06:03:38.991Z,-0.26
2022-11-29T06:04:53.917Z,-0.24
2022-11-29T06:06:28.769Z,-0.33
2022-11-29T06:07:46.791Z,-0.27
2022-11-29T06:09:01.699Z,-0.25
2022-11-29T06:10:13.283Z,-0.20
2022-11-29T06:11:17.030Z,-0.19
2022-11-29T06:12:22.450Z,-0.23
2022-11-29T11:43:59.845Z,-0.89
2022-11-29T11:45:05.613Z,-1.02
2022-11-29T11:46:08.310Z,-1.00
2022-11-29T11:47:14.326Z,-0.98
2022-11-29T11:48:17.239Z,-0.97
2022-11-29T11:49:25.647Z,-0.93
2022-11-29T11:50:31.507Z,-0.93
2022-11-29T11:51:33.514Z,-0.89
2022-11-29T11:52:46.270Z,-0.89
2022-11-29T11:53:49.824Z,-0.87
2022-11-29T11:54:55.345Z,-0.87
2022-11-29T11:56:08.572Z,-0.87
2022-11-29T11:57:18.343Z,-0.85
2022-11-29T11:58:26.901Z,-0.85
2022-11-29T11:59:30.646Z,-0.81
2022-11-29T12:01:04.055Z,-0.79
2022-11-29T12:01:58.716Z,-0.81
2022-11-29T12:03:02.137Z,-0.81
2022-11-29T12:04:23.292Z,-0.81
2022-11-29T12:05:25.386Z,-0.79
2022-11-29T12:06:48.001Z,-0.76
2022-11-29T12:08:07.922Z,-0.76
2022-11-29T12:10:20.751Z,-0.65
2022-11-29T12:11:25.706Z,-0.77
2022-11-29T12:12:31.381Z,-0.80
2022-11-29T12:13:37.091Z,-0.82
2022-11-29T12:14:51.273Z,-0.81
2022-11-29T12:15:57.180Z,-0.79
2022-11-29T12:17:03.063Z,-0.79
2022-11-29T12:18:17.922Z,-0.79
2022-11-29T12:19:26.897Z,-0.76
2022-11-29T12:20:51.505Z,-0.79
2022-11-29T12:21:57.147Z,-0.81
2022-11-29T12:23:11.839Z,-0.74
2022-11-29T12:24:29.338Z,-0.75
2022-11-29T12:25:47.403Z,-0.76
2022-11-29T12:26:59.057Z,-0.80
2022-11-29T12:27:55.542Z,-0.68
2022-11-29T12:28:58.102Z,-0.68
2022-11-29T12:30:00.262Z,-0.71
2022-11-29T12:31:08.767Z,-0.64
2022-11-29T12:32:44.820Z,-0.72
2022-11-29T12:34:22.068Z,-0.68
2022-11-29T12:35:48.977Z,-0.66
2022-11-29T12:37:00.812Z,-0.69
2022-11-29T12:38:21.651Z,-0.71
2022-11-29T12:39:58.100Z,-0.74
2022-11-29T12:41:21.459Z,-0.72
2022-11-29T12:42:35.757Z,-0.80
2022-11-29T12:43:50.814Z,-0.84
2022-11-29T12:45:04.995Z,-0.80
2022-11-29T12:46:25.311Z,-0.85
2022-11-29T12:47:52.643Z,-0.85
2022-11-29T12:49:10.672Z,-0.78
2022-11-29T12:50:22.192Z,-0.84
2022-11-29T12:51:46.197Z,-0.85
2022-11-29T12:54:11.834Z,-0.75
2022-11-29T12:55:20.814Z,-0.87
2022-11-29T12:56:38.478Z,-0.91
2022-11-29T12:57:59.521Z,-0.88
2022-11-29T12:59:22.191Z,-0.84
2022-11-29T13:00:28.004Z,-0.84
2022-11-29T13:01:42.635Z,-0.86
2022-11-29T13:03:11.352Z,-0.82
2022-11-29T13:04:41.619Z,-0.82
2022-11-29T13:06:11.255Z,-0.80
2022-11-29T13:07:41.299Z,-0.83
2022-11-29T13:09:19.242Z,-0.89
2022-11-29T13:10:36.834Z,-0.90
2022-11-29T13:11:51.890Z,-0.79
2022-11-29T13:13:12.880Z,-0.77
2022-11-29T13:14:42.255Z,-0.82
2022-11-29T13:15:37.591Z,-0.82
2022-11-29T13:16:46.305Z,-0.78
2022-11-29T13:18:04.513Z,-0.78
2022-11-29T13:20:55.435Z,-0.67
2022-11-29T13:22:22.504Z,-0.79
2022-11-29T13:23:39.415Z,-0.78
2022-11-29T13:24:44.319Z,-0.76
2022-11-29T13:25:49.841Z,-0.82
2022-11-29T13:26:53.532Z,-0.74
2022-11-29T13:28:02.080Z,-0.80
2022-11-29T13:29:06.853Z,-0.75
2022-11-29T13:30:14.193Z,-0.79
2022-11-29T13:31:20.286Z,-0.77
2022-11-29T13:32:37.890Z,-0.82
2022-11-29T13:33:54.637Z,-0.77
2022-11-29T13:35:00.296Z,-0.79
2022-11-29T13:36:28.598Z,-0.80
2022-11-29T13:37:37.259Z,-0.81
2022-11-29T13:38:42.926Z,-0.77
2022-11-29T13:40:18.133Z,-0.76
2022-11-29T13:41:36.260Z,-0.75
2022-11-29T13:43:53.033Z,-0.66
2022-11-29T13:45:20.988Z,-0.70
2022-11-29T13:46:43.857Z,-0.76
2022-11-29T13:47:55.156Z,-0.79
2022-11-29T13:48:57.110Z,-0.76
2022-11-29T13:50:04.889Z,-0.79
2022-11-29T13:51:36.745Z,-0.79
2022-11-29T13:52:45.890Z,-0.71
2022-11-29T13:53:49.316Z,-0.70
2022-11-29T13:55:13.729Z,-0.77
2022-11-29T13:56:31.785Z,-0.71
2022-11-29T13:59:02.255Z,-0.69
2022-11-29T14:00:06.897Z,-0.70
2022-11-29T14:01:11.450Z,-0.68
2022-11-29T14:02:31.060Z,-0.67
2022-11-29T18:36:15.255Z,-1.22
2022-11-29T18:37:33.722Z,-1.36
2022-11-29T18:38:21.039Z,-1.40
2022-11-29T18:39:23.059Z,-1.39
2022-11-29T18:40:25.030Z,-1.34
2022-11-29T18:41:28.674Z,-1.31
2022-11-29T18:42:31.395Z,-1.29
2022-11-29T18:43:34.790Z,-1.33
2022-11-29T18:44:36.686Z,-1.29
2022-11-29T18:45:38.593Z,-1.30
2022-11-29T18:46:42.710Z,-1.32
2022-11-29T18:47:46.497Z,-1.23
2022-11-29T18:48:48.402Z,-1.24
2022-11-29T18:49:50.262Z,-1.24
2022-11-29T18:50:52.220Z,-1.23
2022-11-29T18:51:54.318Z,-1.29
2022-11-29T18:52:57.880Z,-1.29
2022-11-29T18:54:00.416Z,-1.26
2022-11-29T18:55:03.223Z,-1.24
2022-11-29T18:56:17.723Z,-1.29
2022-11-29T18:57:19.666Z,-1.29
2022-11-29T18:58:21.586Z,-1.26
2022-11-29T18:59:24.650Z,-1.21
2022-11-29T19:00:26.610Z,-1.22
2022-11-29T19:01:33.038Z,-1.28
2022-11-29T19:02:35.070Z,-1.24
2022-11-29T19:03:40.910Z,-1.23
2022-11-29T19:04:43.056Z,-1.27
2022-11-29T19:05:52.851Z,-1.29
2022-11-29T19:06:54.985Z,-1.24
2022-11-29T19:07:56.930Z,-1.23
2022-11-29T19:09:01.570Z,-1.27
2022-11-29T19:10:05.363Z,-1.24
2022-11-29T19:11:13.043Z,-1.18
2022-11-29T19:12:14.941Z,-1.16
2022-11-29T19:13:16.811Z,-1.24
2022-11-29T19:14:19.276Z,-1.19
2022-11-29T19:15:21.268Z,-1.26
2022-11-29T19:16:24.481Z,-1.22
2022-11-29T19:17:26.834Z,-1.21
2022-11-29T19:18:31.128Z,-1.22
2022-11-29T19:19:33.019Z,-1.23
2022-11-29T19:20:34.979Z,-1.24
2022-11-29T19:21:36.841Z,-1.25
2022-11-29T19:22:38.869Z,-1.25
2022-11-29T19:23:42.385Z,-1.21
2022-11-29T19:24:45.722Z,-1.17
2022-11-29T19:25:47.969Z,-1.26
2022-11-29T19:26:51.995Z,-1.21
2022-11-29T19:27:54.001Z,-1.22
2022-11-29T19:28:56.872Z,-1.24
2022-11-29T19:29:58.759Z,-1.23
2022-11-29T19:31:00.740Z,-1.26
2022-11-29T19:32:02.888Z,-1.30
2022-11-29T19:33:04.751Z,-1.26
2022-11-29T19:34:07.895Z,-1.26
2022-11-29T19:35:09.916Z,-1.28
2022-11-29T19:37:33.644Z,-1.14
2022-11-29T19:38:37.453Z,-1.24
2022-11-29T19:39:39.364Z,-1.30
2022-11-29T19:40:41.367Z,-1.23
2022-11-29T19:41:45.496Z,-1.26
2022-11-29T19:42:49.423Z,-1.18
2022-11-29T19:43:54.727Z,-1.17
2022-11-29T19:45:16.610Z,-1.13
2022-11-29T19:46:10.468Z,-1.13
2022-11-29T19:47:12.514Z,-1.18
2022-11-29T19:48:15.317Z,-1.21
2022-11-29T19:49:17.315Z,-1.26
2022-11-29T19:50:19.487Z,-1.18
2022-11-29T19:51:23.268Z,-1.19
2022-11-29T19:52:25.256Z,-1.22
2022-11-29T19:53:28.455Z,-1.21
2022-11-29T19:54:31.489Z,-1.17
2022-11-29T19:55:43.793Z,-1.17
2022-11-29T19:56:44.340Z,-1.22
2022-11-29T19:57:46.220Z,-1.15
2022-11-29T19:58:48.487Z,-1.17
2022-11-29T19:59:50.390Z,-1.13
2022-11-29T20:00:52.443Z,-1.21
2022-11-29T20:01:54.373Z,-1.27
2022-11-29T20:02:56.452Z,-1.23
2022-11-29T20:03:58.451Z,-1.22
2022-11-29T20:05:00.345Z,-1.21
2022-11-29T20:06:05.764Z,-1.16
2022-11-29T20:07:07.723Z,-1.17
2022-11-29T20:08:09.856Z,-1.24
2022-11-29T20:09:13.919Z,-1.23
2022-11-29T20:10:17.674Z,-1.26
2022-11-29T20:11:22.529Z,-1.26
2022-11-29T20:12:24.540Z,-1.25
2022-11-29T20:13:28.813Z,-1.24
2022-11-29T20:14:32.926Z,-1.26
2022-11-29T20:15:34.880Z,-1.33
2022-11-29T20:16:39.738Z,-1.31
2022-11-29T20:17:43.545Z,-1.27
2022-11-29T20:18:50.924Z,-1.33
2022-11-29T20:19:51.593Z,-1.27
2022-11-29T20:20:53.700Z,-1.32
2022-11-29T20:21:57.492Z,-1.31
2022-11-29T20:22:59.343Z,-1.30
2022-11-29T20:24:04.608Z,-1.32
2022-11-29T20:25:06.996Z,-1.31
2022-11-29T20:27:28.011Z,-1.21
2022-11-29T20:28:29.942Z,-1.25
2022-11-29T20:29:31.809Z,-1.26
2022-11-29T20:30:34.372Z,-1.36
2022-11-29T20:31:43.060Z,-1.26
2022-11-29T20:32:44.438Z,-1.29
2022-11-29T20:33:48.889Z,-1.32
2022-11-29T20:34:51.772Z,-1.29
2022-11-29T20:36:25.980Z,-1.34
2022-11-29T20:37:37.626Z,-1.35
2022-11-29T20:38:50.212Z,-1.38
2022-11-29T20:39:55.911Z,-1.34
2022-11-29T20:41:05.592Z,-1.32
2022-11-29T20:42:45.120Z,-1.29
2022-11-29T20:45:07.550Z,-1.23
2022-11-29T20:46:10.182Z,-1.30
2022-11-29T20:47:16.022Z,-1.33
2022-11-29T20:48:22.322Z,-1.29
2022-11-29T20:49:24.737Z,-1.28
2022-11-29T20:50:29.646Z,-1.30
2022-11-29T20:51:38.354Z,-1.30
2022-11-29T20:52:52.908Z,-1.30
2022-11-29T20:53:54.927Z,-1.32
2022-11-29T20:54:58.214Z,-1.37
2022-11-29T20:56:01.031Z,-1.33
2022-11-29T20:57:03.016Z,-1.30
2022-11-29T20:58:05.649Z,-1.29
2022-11-29T20:59:07.565Z,-1.31
2022-11-29T21:00:11.693Z,-1.25
2022-11-29T21:01:13.684Z,-1.24
2022-11-29T21:02:15.710Z,-1.25
2022-11-29T21:03:18.996Z,-1.28
2022-11-29T21:04:23.563Z,-1.23
2022-11-29T21:05:26.549Z,-1.25
2022-11-29T21:06:28.557Z,-1.27
2022-11-29T21:07:31.137Z,-1.32
2022-11-29T21:08:33.994Z,-1.28
2022-11-29T21:09:35.965Z,-1.27
2022-11-29T21:10:37.954Z,-1.27
2022-11-29T21:11:40.669Z,-1.26
2022-11-29T21:12:44.444Z,-1.23
2022-11-29T21:13:47.097Z,-1.23
2022-11-29T21:14:50.175Z,-1.21
2022-11-29T21:15:53.939Z,-1.18
2022-11-29T21:16:56.761Z,-1.21
2022-11-29T21:17:59.869Z,-1.17
2022-11-29T21:19:02.704Z,-1.19
2022-11-29T21:20:06.777Z,-1.13
2022-11-29T21:21:15.245Z,-1.13
2022-11-29T21:22:30.171Z,-1.17
2022-11-29T21:23:41.875Z,-1.21
2022-11-29T21:25:04.771Z,-1.20
2022-11-29T21:26:13.353Z,-1.21
2022-11-29T21:27:19.040Z,-1.16
2022-11-29T21:28:24.746Z,-1.18
2022-11-29T21:29:29.377Z,-1.14
2022-11-29T21:30:31.953Z,-1.15
2022-11-29T21:31:34.568Z,-1.16
2022-11-29T21:32:37.598Z,-1.15
2022-11-29T21:33:41.972Z,-1.11
2022-11-29T21:34:46.519Z,-1.11
2022-11-29T21:35:52.573Z,-1.16
2022-11-29T21:36:57.849Z,-1.15
2022-11-29T21:38:01.893Z,-1.16
2022-11-29T21:39:05.644Z,-1.17
2022-11-29T21:40:08.986Z,-1.19
2022-11-29T21:41:10.880Z,-1.16
2022-11-29T21:42:12.785Z,-1.13
2022-11-29T21:43:15.544Z,-1.11
2022-11-29T21:44:18.748Z,-1.08
2022-11-29T21:45:20.608Z,-1.06
2022-11-29T21:46:22.750Z,-1.09
2022-11-29T21:47:24.926Z,-1.13
2022-11-29T21:48:27.867Z,-1.07
2022-11-29T21:49:29.768Z,-1.08
2022-11-29T21:50:31.745Z,-1.10
2022-11-29T21:51:33.611Z,-1.16
2022-11-29T21:52:35.641Z,-1.11
2022-11-29T21:53:38.844Z,-1.19
2022-11-29T21:54:40.762Z,-1.16
2022-11-29T21:55:42.606Z,-1.11
2022-11-29T21:56:44.555Z,-1.06
2022-11-29T21:57:46.567Z,-1.14
2022-11-29T21:58:48.432Z,-1.11
